Milton Freewater, Oregon
Current Conditions -  °F | °C
As of 10:53 AM on Sunday 23 Nov 2014 (Local Time) from KALW Reporting Station
Scattered Clouds Scattered Clouds  
Wind Chill: 50°   Ceiling: Unl
Heat Index: 50°   Visibility: 10mi
Dew Point: 34°   Wind: 18mph
Humidity: 54%   Direction: 190°S
Pressure: 30.18"   Gusts: NA
Location:  45.94°N, 118.39°W
Report Text: KALW 231853Z 19016KT 10SM SCT080 10/01 A3018 RMK AO2 SLP223 T01000011
Loading
Personal Weather Stations






























Interactive Weather Map New forecast layout! Learn more

10-Day Weather Forecast

Advertisements
Track Severe Weather on mobile